Time;durP1;ratioP1;P1;durP2;ratioP2;P2;SDS_P1;SDS_P2;PMS_P1;PMS_P2;Temp;Humidity;BMP_temperature;BMP_pressure;BME280_temperature;BME280_humidity;BME280_pressure;Samples;Min_cycle;Max_cycle;Signal;HPM_P1;HPM_P2
2023/11/06 00:02:46;;;;;;;;;;;;;;;13.19;100.00;96625.07;135630;1278;22523;-72
2023/11/06 00:05:49;;;;;;;;;;;;;;;13.10;100.00;96629.70;135686;1278;22530;-68
2023/11/06 00:08:51;;;;;;;;;;;;;;;13.11;100.00;96628.92;135672;1269;22775;-78
2023/11/06 00:11:54;;;;;;;;;;;;;;;13.01;100.00;96641.52;135722;1278;22531;-75
2023/11/06 00:14:56;;;;;;;;;;;;;;;13.03;100.00;96645.66;135693;1278;25393;-75
2023/11/06 00:17:59;;;;;;;;;;;;;;;12.97;100.00;96646.42;135720;1278;22530;-72
2023/11/06 00:21:02;;;;;;;;;;;;;;;12.86;100.00;96649.93;135718;1278;22606;-72
2023/11/06 00:24:05;;;;;;;;;;;;;;;12.87;100.00;96658.42;135727;1278;23971;-73
2023/11/06 00:27:07;;;;;;;;;;;;;;;12.95;100.00;96653.06;135693;1260;22507;-74
2023/11/06 00:30:10;;;;;;;;;;;;;;;12.90;100.00;96664.73;135736;1278;22523;-74
2023/11/06 00:33:12;;;;;;;;;;;;;;;12.86;100.00;96672.19;135688;1278;22515;-73
2023/11/06 00:36:15;;;;;;;;;;;;;;;12.80;100.00;96681.75;135712;1278;22658;-75
2023/11/06 00:39:18;;;;;;;;;;;;;;;12.79;100.00;96682.08;135691;1278;22537;-74
2023/11/06 00:42:20;;;;;;;;;;;;;;;12.80;100.00;96695.27;135705;1278;22530;-77
2023/11/06 00:45:23;;;;;;;;;;;;;;;12.78;100.00;96700.72;135737;1259;22524;-76
2023/11/06 00:48:25;;;;;;;;;;;;;;;12.82;100.00;96700.80;135676;1278;22514;-76
2023/11/06 00:51:28;;;;;;;;;;;;;;;12.83;100.00;96711.80;135711;1278;24232;-76
2023/11/06 00:54:31;;;;;;;;;;;;;;;12.83;100.00;96719.02;135720;1278;25585;-77
2023/11/06 00:57:33;;;;;;;;;;;;;;;12.95;100.00;96720.36;135698;1278;24037;-75
2023/11/06 01:00:37;;;;;;;;;;;;;;;13.00;100.00;96724.40;135671;1278;22519;-75
2023/11/06 01:03:39;;;;;;;;;;;;;;;12.94;100.00;96728.06;135695;1278;22534;-74
2023/11/06 01:06:42;;;;;;;;;;;;;;;12.97;100.00;96730.50;135667;1278;22522;-77
2023/11/06 01:09:44;;;;;;;;;;;;;;;13.02;100.00;96729.50;135711;1278;22497;-73
2023/11/06 01:12:47;;;;;;;;;;;;;;;13.00;100.00;96738.80;135668;1278;22522;-73
2023/11/06 01:15:49;;;;;;;;;;;;;;;13.01;100.00;96738.14;135754;1278;25346;-76
2023/11/06 01:18:52;;;;;;;;;;;;;;;13.02;100.00;96742.65;135697;1278;22643;-74
2023/11/06 01:21:55;;;;;;;;;;;;;;;13.24;100.00;96746.27;135682;1278;22620;-72
2023/11/06 01:24:57;;;;;;;;;;;;;;;13.24;100.00;96761.04;135730;1278;24371;-73
2023/11/06 01:28:01;;;;;;;;;;;;;;;13.23;100.00;96760.68;135770;1260;22515;-75
2023/11/06 01:31:03;;;;;;;;;;;;;;;13.34;100.00;96772.27;135715;1278;22545;-76
2023/11/06 01:34:05;;;;;;;;;;;;;;;13.47;100.00;96778.80;135733;1278;24262;-76
2023/11/06 01:37:08;;;;;;;;;;;;;;;13.52;100.00;96787.30;135712;1278;22522;-76
2023/11/06 01:40:11;;;;;;;;;;;;;;;13.43;100.00;96792.62;135701;1278;22508;-75
2023/11/06 01:43:14;;;;;;;;;;;;;;;13.53;100.00;96800.52;135691;1278;22563;-74
2023/11/06 01:46:16;;;;;;;;;;;;;;;13.46;100.00;96807.92;135712;1278;22493;-67
2023/11/06 01:49:19;;;;;;;;;;;;;;;13.33;100.00;96804.41;135751;1278;25445;-76
2023/11/06 01:52:22;;;;;;;;;;;;;;;13.41;100.00;96816.23;135701;1257;22642;-74
2023/11/06 01:55:27;;;;;;;;;;;;;;;13.52;100.00;96820.98;135734;1278;22693;-73
2023/11/06 01:58:30;;;;;;;;;;;;;;;13.57;100.00;96826.84;135744;1278;22511;-75
2023/11/06 02:01:32;;;;;;;;;;;;;;;13.53;100.00;96834.11;135698;1278;22528;-74
2023/11/06 02:04:35;;;;;;;;;;;;;;;13.50;100.00;96834.90;135756;1260;22501;-73
2023/11/06 02:07:37;;;;;;;;;;;;;;;13.57;100.00;96836.16;135714;1278;22520;-72
2023/11/06 02:10:40;;;;;;;;;;;;;;;13.54;100.00;96839.98;135717;1278;22518;-74
2023/11/06 02:13:42;;;;;;;;;;;;;;;13.43;100.00;96853.06;135728;1278;23115;-76
2023/11/06 02:16:45;;;;;;;;;;;;;;;13.42;100.00;96863.41;135703;1273;22508;-76
2023/11/06 02:19:48;;;;;;;;;;;;;;;13.38;100.00;96866.02;135655;1278;22511;-77
2023/11/06 02:22:51;;;;;;;;;;;;;;;13.37;100.00;96876.65;135729;1278;22515;-75
2023/11/06 02:25:53;;;;;;;;;;;;;;;13.37;100.00;96885.38;135736;1278;22515;-79
2023/11/06 02:28:56;;;;;;;;;;;;;;;13.32;100.00;96893.96;135762;1278;22545;-76
2023/11/06 02:31:59;;;;;;;;;;;;;;;13.38;100.00;96894.40;135699;1278;22511;-75
2023/11/06 02:35:01;;;;;;;;;;;;;;;13.41;100.00;96908.90;135708;1278;22507;-71
2023/11/06 02:38:04;;;;;;;;;;;;;;;13.39;100.00;96907.48;135714;1278;22523;-76
2023/11/06 02:41:08;;;;;;;;;;;;;;;13.51;100.00;96916.61;135668;1278;24190;-78
2023/11/06 02:44:11;;;;;;;;;;;;;;;13.61;100.00;96923.98;135711;1278;24379;-77
2023/11/06 02:47:14;;;;;;;;;;;;;;;13.52;100.00;96921.58;135735;1278;22575;-73
2023/11/06 02:50:16;;;;;;;;;;;;;;;13.36;100.00;96932.38;135682;1278;22530;-78
2023/11/06 02:53:19;;;;;;;;;;;;;;;13.37;100.00;96935.73;135688;1278;22646;-78
2023/11/06 02:56:21;;;;;;;;;;;;;;;13.53;100.00;96948.19;135726;1260;25567;-78
2023/11/06 02:59:24;;;;;;;;;;;;;;;13.62;100.00;96944.67;135717;1278;24464;-79
2023/11/06 03:02:27;;;;;;;;;;;;;;;13.61;100.00;96952.86;135700;1278;22523;-76
2023/11/06 03:05:31;;;;;;;;;;;;;;;13.49;100.00;96958.15;135712;1259;24237;-76
2023/11/06 03:08:33;;;;;;;;;;;;;;;13.41;100.00;96966.39;135655;1278;22500;-77
2023/11/06 03:11:36;;;;;;;;;;;;;;;13.53;100.00;96967.35;135728;1256;24356;-76
2023/11/06 03:14:39;;;;;;;;;;;;;;;13.43;100.00;96991.23;135751;1278;25582;-77
2023/11/06 03:17:42;;;;;;;;;;;;;;;13.54;100.00;96988.52;135731;1278;23867;-74
2023/11/06 03:20:45;;;;;;;;;;;;;;;13.61;100.00;97005.23;135724;1259;22511;-77
2023/11/06 03:23:48;;;;;;;;;;;;;;;13.63;100.00;97004.40;135705;1278;22527;-73
2023/11/06 03:26:51;;;;;;;;;;;;;;;13.50;100.00;97011.71;135711;1278;22537;-73
2023/11/06 03:29:53;;;;;;;;;;;;;;;13.57;100.00;97019.48;135730;1278;22538;-77
2023/11/06 03:32:56;;;;;;;;;;;;;;;13.24;100.00;97025.89;135688;1278;22522;-75
2023/11/06 03:35:58;;;;;;;;;;;;;;;13.17;100.00;97025.38;135699;1278;24047;-75
2023/11/06 03:39:02;;;;;;;;;;;;;;;13.36;100.00;97021.39;135746;1278;22531;-76
2023/11/06 03:42:05;;;;;;;;;;;;;;;13.45;100.00;97036.48;135672;1278;22617;-76
2023/11/06 03:45:07;;;;;;;;;;;;;;;13.53;100.00;97049.55;135750;1278;22531;-74
2023/11/06 03:48:10;;;;;;;;;;;;;;;13.47;100.00;97047.48;135719;1278;22567;-76
2023/11/06 03:51:12;;;;;;;;;;;;;;;13.55;100.00;97044.96;135728;1278;22511;-78
2023/11/06 03:54:15;;;;;;;;;;;;;;;13.56;100.00;97054.45;135702;1278;22547;-77
2023/11/06 03:57:17;;;;;;;;;;;;;;;13.44;100.00;97055.10;135638;1278;22527;-77
2023/11/06 04:00:20;;;;;;;;;;;;;;;13.36;100.00;97060.49;135744;1278;22519;-78
2023/11/06 04:03:23;;;;;;;;;;;;;;;13.37;100.00;97077.42;135682;1278;23820;-67
2023/11/06 04:06:25;;;;;;;;;;;;;;;13.32;100.00;97081.40;135737;1278;22525;-71
2023/11/06 04:09:28;;;;;;;;;;;;;;;13.47;100.00;97088.02;135682;1278;22529;-69
2023/11/06 04:12:31;;;;;;;;;;;;;;;13.60;100.00;97093.36;135718;1278;22541;-75
2023/11/06 04:15:34;;;;;;;;;;;;;;;13.68;100.00;97092.59;135730;1259;22520;-73
2023/11/06 04:18:37;;;;;;;;;;;;;;;13.59;100.00;97096.32;135750;1278;22505;-75
2023/11/06 04:21:39;;;;;;;;;;;;;;;13.54;100.00;97089.98;135744;1278;22527;-75
2023/11/06 04:24:42;;;;;;;;;;;;;;;13.60;100.00;97112.41;135669;1278;22535;-72
2023/11/06 04:27:45;;;;;;;;;;;;;;;13.50;100.00;97113.24;135749;1278;24210;-66
2023/11/06 04:30:48;;;;;;;;;;;;;;;13.49;100.00;97112.74;135739;1278;22503;-70
2023/11/06 04:33:50;;;;;;;;;;;;;;;13.59;100.00;97112.88;135722;1278;22624;-74
2023/11/06 04:36:53;;;;;;;;;;;;;;;13.63;100.00;97122.77;135721;1278;22526;-72
2023/11/06 04:39:55;;;;;;;;;;;;;;;13.71;100.00;97131.44;135701;1278;22523;-77
2023/11/06 04:42:58;;;;;;;;;;;;;;;13.69;100.00;97132.52;135688;1278;22521;-68
2023/11/06 04:46:00;;;;;;;;;;;;;;;13.51;100.00;97131.95;135707;1278;22563;-74
2023/11/06 04:49:03;;;;;;;;;;;;;;;13.50;100.00;97137.84;135739;1278;23689;-76
2023/11/06 04:52:05;;;;;;;;;;;;;;;13.63;100.00;97149.69;135735;1259;22530;-75
2023/11/06 04:55:08;;;;;;;;;;;;;;;13.68;100.00;97151.10;135709;1278;22558;-74
2023/11/06 04:58:10;;;;;;;;;;;;;;;13.76;100.00;97160.38;135737;1278;22539;-76
2023/11/06 05:01:13;;;;;;;;;;;;;;;13.72;100.00;97170.40;135742;1278;25463;-77
2023/11/06 05:04:16;;;;;;;;;;;;;;;13.51;100.00;97183.11;135643;1278;22496;-76
2023/11/06 05:07:18;;;;;;;;;;;;;;;13.50;100.00;97183.05;135732;1267;24228;-75
2023/11/06 05:10:21;;;;;;;;;;;;;;;13.59;100.00;97186.80;135724;1278;22561;-70
2023/11/06 05:13:24;;;;;;;;;;;;;;;13.69;100.00;97187.55;135711;1277;24243;-76
2023/11/06 05:16:26;;;;;;;;;;;;;;;13.81;100.00;97197.44;135716;1256;22631;-78
2023/11/06 05:19:29;;;;;;;;;;;;;;;13.84;100.00;97202.50;135728;1278;22519;-76
2023/11/06 05:22:32;;;;;;;;;;;;;;;13.73;100.00;97197.11;135736;1278;24317;-77
2023/11/06 05:25:35;;;;;;;;;;;;;;;13.61;100.00;97197.30;135659;1278;22522;-77
2023/11/06 05:28:37;;;;;;;;;;;;;;;13.59;100.00;97204.88;135734;1278;26491;-74
2023/11/06 05:31:41;;;;;;;;;;;;;;;13.66;100.00;97213.49;135647;1278;22507;-76
2023/11/06 05:34:43;;;;;;;;;;;;;;;13.81;100.00;97221.30;135744;1278;22527;-76
2023/11/06 05:37:46;;;;;;;;;;;;;;;13.59;100.00;97228.16;135740;1278;22541;-77
2023/11/06 05:40:49;;;;;;;;;;;;;;;13.60;100.00;97236.52;135753;1278;23296;-75
2023/11/06 05:43:51;;;;;;;;;;;;;;;13.46;100.00;97242.42;135658;1278;22619;-76
2023/11/06 05:46:54;;;;;;;;;;;;;;;13.24;100.00;97242.67;135716;1278;22511;-75
2023/11/06 05:49:57;;;;;;;;;;;;;;;13.09;100.00;97244.82;135729;1278;24382;-75
2023/11/06 05:53:00;;;;;;;;;;;;;;;13.01;100.00;97250.14;135705;1278;22543;-78
2023/11/06 05:56:03;;;;;;;;;;;;;;;13.08;100.00;97260.82;135708;1278;22524;-77
2023/11/06 05:59:06;;;;;;;;;;;;;;;13.15;100.00;97269.87;135683;1259;22533;-76
2023/11/06 06:02:09;;;;;;;;;;;;;;;13.15;100.00;97277.02;135739;1278;22519;-77
2023/11/06 06:05:12;;;;;;;;;;;;;;;13.11;100.00;97284.43;135636;1278;22510;-76
2023/11/06 06:08:15;;;;;;;;;;;;;;;13.15;100.00;97291.59;135696;1259;22517;-74
2023/11/06 06:11:18;;;;;;;;;;;;;;;13.05;100.00;97293.96;135701;1258;22537;-77
2023/11/06 06:14:21;;;;;;;;;;;;;;;13.06;100.00;97307.17;135759;1278;22586;-75
2023/11/06 06:17:24;;;;;;;;;;;;;;;13.06;100.00;97313.69;135739;1278;22616;-75
2023/11/06 06:20:26;;;;;;;;;;;;;;;13.04;100.00;97325.44;135747;1278;22503;-72
2023/11/06 06:23:29;;;;;;;;;;;;;;;13.02;100.00;97330.78;135734;1278;22530;-77
2023/11/06 06:26:31;;;;;;;;;;;;;;;13.10;100.00;97323.29;135688;1278;22554;-77
2023/11/06 06:29:34;;;;;;;;;;;;;;;12.86;100.00;97324.66;135727;1278;22559;-77
2023/11/06 06:32:37;;;;;;;;;;;;;;;12.89;100.00;97333.15;135728;1259;22637;-77
2023/11/06 06:35:39;;;;;;;;;;;;;;;13.01;100.00;97341.91;135705;1278;22630;-72
2023/11/06 06:38:42;;;;;;;;;;;;;;;12.97;100.00;97349.83;135700;1278;22527;-77
2023/11/06 06:41:44;;;;;;;;;;;;;;;13.01;100.00;97350.77;135705;1278;22523;-77
2023/11/06 06:44:47;;;;;;;;;;;;;;;13.12;100.00;97367.69;135746;1278;22525;-77
2023/11/06 06:47:50;;;;;;;;;;;;;;;13.49;100.00;97358.38;135686;1278;25607;-75
2023/11/06 06:50:52;;;;;;;;;;;;;;;13.73;100.00;97365.77;135751;1278;22623;-77
2023/11/06 06:53:55;;;;;;;;;;;;;;;13.52;100.00;97369.90;135719;1278;22511;-77
2023/11/06 06:56:57;;;;;;;;;;;;;;;13.57;100.00;97369.95;135703;1278;22514;-76
2023/11/06 07:00:00;;;;;;;;;;;;;;;13.55;100.00;97384.36;135699;1278;24193;-76
2023/11/06 07:03:05;;;;;;;;;;;;;;;13.56;100.00;97392.50;135713;1278;22615;-77
2023/11/06 07:06:08;;;;;;;;;;;;;;;13.57;100.00;97392.11;135643;1278;22534;-76
2023/11/06 07:09:10;;;;;;;;;;;;;;;13.70;100.00;97408.86;135625;1278;176065;-72
2023/11/06 07:12:14;;;;;;;;;;;;;;;13.78;100.00;97398.28;135747;1278;25249;-73
2023/11/06 07:15:16;;;;;;;;;;;;;;;14.06;100.00;97417.77;135687;1259;22505;-74
2023/11/06 07:18:19;;;;;;;;;;;;;;;14.19;100.00;97422.23;135705;1278;22636;-71
2023/11/06 07:21:21;;;;;;;;;;;;;;;14.25;100.00;97415.93;135715;1278;22624;-71
2023/11/06 07:24:26;;;;;;;;;;;;;;;14.39;100.00;97425.20;135663;1278;22515;-76
2023/11/06 07:27:29;;;;;;;;;;;;;;;14.45;100.00;97427.49;135667;1259;24193;-74
2023/11/06 07:30:32;;;;;;;;;;;;;;;14.61;100.00;97428.86;135662;1278;22512;-76
2023/11/06 07:33:35;;;;;;;;;;;;;;;14.70;100.00;97437.91;135726;1278;24825;-78
2023/11/06 07:36:38;;;;;;;;;;;;;;;14.98;100.00;97432.48;135764;1272;22512;-79
2023/11/06 07:39:41;;;;;;;;;;;;;;;15.02;100.00;97452.86;135742;1278;22533;-80
2023/11/06 07:42:43;;;;;;;;;;;;;;;14.99;100.00;97449.58;135707;1256;22514;-80
2023/11/06 07:45:46;;;;;;;;;;;;;;;14.98;100.00;97460.45;135673;1278;22496;-79
2023/11/06 07:48:48;;;;;;;;;;;;;;;15.07;100.00;97470.09;135664;1278;22547;-78
2023/11/06 07:51:51;;;;;;;;;;;;;;;15.03;100.00;97466.75;135743;1278;22530;-78
2023/11/06 07:54:53;;;;;;;;;;;;;;;14.96;100.00;97474.35;135735;1278;23164;-77
2023/11/06 07:57:58;;;;;;;;;;;;;;;15.23;100.00;97464.81;135728;1278;22511;-78
2023/11/06 08:01:00;;;;;;;;;;;;;;;15.24;100.00;97471.91;135723;1278;22523;-79
2023/11/06 08:04:03;;;;;;;;;;;;;;;15.47;100.00;97486.83;135740;1278;22510;-78
2023/11/06 08:07:06;;;;;;;;;;;;;;;15.75;100.00;97483.05;135673;1278;22518;-78
2023/11/06 08:10:09;;;;;;;;;;;;;;;15.98;100.00;97488.15;135715;1259;22538;-77
2023/11/06 08:13:11;;;;;;;;;;;;;;;16.02;100.00;97492.86;135686;1278;22510;-76
2023/11/06 08:16:14;;;;;;;;;;;;;;;16.44;100.00;97480.52;135717;1278;25256;-78
2023/11/06 08:19:16;;;;;;;;;;;;;;;16.21;100.00;97504.26;135725;1259;22520;-75
2023/11/06 08:22:20;;;;;;;;;;;;;;;16.19;100.00;97497.09;135665;1278;22623;-76
2023/11/06 08:25:25;;;;;;;;;;;;;;;16.19;99.85;97511.87;135686;1278;22507;-74
2023/11/06 08:28:28;;;;;;;;;;;;;;;16.36;100.00;97513.40;135685;1278;22765;-77
2023/11/06 08:31:30;;;;;;;;;;;;;;;16.39;100.00;97512.05;135685;1278;22514;-76
2023/11/06 08:34:33;;;;;;;;;;;;;;;16.59;100.00;97519.12;135705;1278;22550;-77
2023/11/06 08:37:35;;;;;;;;;;;;;;;16.32;99.92;97524.57;135723;1278;22595;-77
2023/11/06 08:40:38;;;;;;;;;;;;;;;15.95;100.00;97532.84;135712;1259;24184;-80
2023/11/06 08:43:41;;;;;;;;;;;;;;;15.61;100.00;97546.73;135733;1278;22507;-80
2023/11/06 08:46:43;;;;;;;;;;;;;;;15.61;100.00;97554.60;135730;1278;25460;-79
2023/11/06 08:49:46;;;;;;;;;;;;;;;15.52;100.00;97558.51;135650;1278;22526;-75
2023/11/06 08:52:48;;;;;;;;;;;;;;;15.45;100.00;97559.38;135711;1278;22519;-79
2023/11/06 08:55:51;;;;;;;;;;;;;;;15.59;100.00;97565.19;135749;1278;22527;-79
2023/11/06 08:58:53;;;;;;;;;;;;;;;15.54;100.00;97573.34;135685;1278;22497;-80
2023/11/06 09:01:56;;;;;;;;;;;;;;;15.62;100.00;97576.70;135716;1278;25357;-74
2023/11/06 09:04:59;;;;;;;;;;;;;;;15.63;100.00;97588.73;135693;1278;25277;-81
2023/11/06 09:08:02;;;;;;;;;;;;;;;15.61;100.00;97587.23;135685;1278;22546;-81
2023/11/06 09:11:05;;;;;;;;;;;;;;;15.77;100.00;97579.28;135695;1278;22662;-72
2023/11/06 09:14:08;;;;;;;;;;;;;;;15.83;100.00;97589.30;135722;1278;22510;-73
2023/11/06 09:17:10;;;;;;;;;;;;;;;16.01;100.00;97595.39;135699;1278;22531;-79
2023/11/06 09:20:13;;;;;;;;;;;;;;;16.35;100.00;97598.78;135680;1278;22514;-70
2023/11/06 09:23:16;;;;;;;;;;;;;;;16.38;99.83;97607.06;135694;1278;25575;-78
2023/11/06 09:26:19;;;;;;;;;;;;;;;16.44;99.89;97610.19;135639;1278;22501;-81
2023/11/06 09:29:21;;;;;;;;;;;;;;;16.14;99.54;97614.30;135611;1278;24213;-80
2023/11/06 09:32:25;;;;;;;;;;;;;;;16.10;99.73;97603.21;135648;1278;24248;-77
2023/11/06 09:35:28;;;;;;;;;;;;;;;15.84;100.00;97602.60;135660;1278;22533;-78
2023/11/06 09:38:30;;;;;;;;;;;;;;;15.94;100.00;97623.74;135719;1278;22512;-78
2023/11/06 09:41:33;;;;;;;;;;;;;;;15.91;100.00;97644.29;135735;1278;22536;-82
2023/11/06 09:44:36;;;;;;;;;;;;;;;15.90;100.00;97620.66;135665;1278;22534;-80
2023/11/06 09:47:39;;;;;;;;;;;;;;;15.90;100.00;97632.97;135714;1278;22648;-82
2023/11/06 09:50:41;;;;;;;;;;;;;;;16.10;100.00;97636.61;135629;1278;22624;-82
2023/11/06 09:53:44;;;;;;;;;;;;;;;16.11;100.00;97627.16;135687;1278;22504;-73
2023/11/06 09:56:46;;;;;;;;;;;;;;;16.08;99.95;97634.45;135698;1278;22562;-69
2023/11/06 09:59:49;;;;;;;;;;;;;;;16.24;99.51;97646.04;135718;1278;22508;-73
2023/11/06 10:02:53;;;;;;;;;;;;;;;16.39;99.53;97643.85;135676;1278;24357;-71
2023/11/06 10:05:57;;;;;;;;;;;;;;;16.59;99.93;97646.40;135644;1278;22519;-71
2023/11/06 10:09:02;;;;;;;;;;;;;;;16.73;98.75;97636.03;135615;1259;22527;-81
2023/11/06 10:12:05;;;;;;;;;;;;;;;16.70;99.59;97656.50;135630;1278;22599;-81
2023/11/06 10:15:23;;;;;;;;;;;;;;;16.41;100.00;97648.89;135718;1278;22507;-75
2023/11/06 10:18:26;;;;;;;;;;;;;;;16.37;99.83;97648.64;135690;1278;23926;-79
2023/11/06 10:21:29;;;;;;;;;;;;;;;16.39;99.03;97638.55;135666;1278;22497;-81
2023/11/06 10:24:32;;;;;;;;;;;;;;;16.28;98.88;97647.05;135664;1278;22498;-81
2023/11/06 10:27:36;;;;;;;;;;;;;;;16.48;99.72;97654.57;135702;1278;22521;-83
2023/11/06 10:30:39;;;;;;;;;;;;;;;16.42;99.32;97664.56;135695;1278;22517;-80
2023/11/06 10:33:41;;;;;;;;;;;;;;;16.32;99.75;97663.96;135633;1278;22544;-81
2023/11/06 10:36:44;;;;;;;;;;;;;;;16.56;98.94;97658.31;135660;1278;22524;-82
2023/11/06 10:39:46;;;;;;;;;;;;;;;16.50;99.47;97672.70;135691;1278;22524;-81
2023/11/06 10:42:49;;;;;;;;;;;;;;;16.41;99.63;97668.36;135696;1278;22511;-81
2023/11/06 10:45:52;;;;;;;;;;;;;;;16.44;99.37;97675.60;135656;1278;24201;-77
2023/11/06 10:48:55;;;;;;;;;;;;;;;16.93;98.49;97668.81;135687;1278;22636;-80
2023/11/06 10:51:57;;;;;;;;;;;;;;;17.25;96.37;97688.06;135633;1278;22626;-78
2023/11/06 10:55:00;;;;;;;;;;;;;;;17.12;94.09;97693.29;135565;1278;22525;-79
2023/11/06 10:58:03;;;;;;;;;;;;;;;17.03;89.02;97701.80;135682;1278;22515;-77
2023/11/06 11:01:05;;;;;;;;;;;;;;;17.03;86.02;97717.33;135670;1278;22507;-78
2023/11/06 11:04:10;;;;;;;;;;;;;;;17.03;86.17;97704.81;135673;1278;22526;-79
2023/11/06 11:07:12;;;;;;;;;;;;;;;16.83;87.95;97697.15;135651;1278;24359;-81
2023/11/06 11:10:17;;;;;;;;;;;;;;;16.73;89.15;97702.24;135691;1278;25328;-79
2023/11/06 11:13:21;;;;;;;;;;;;;;;16.58;90.88;97714.27;135621;1278;22616;-81
2023/11/06 11:16:24;;;;;;;;;;;;;;;16.92;89.92;97712.33;135648;1278;22520;-77
2023/11/06 11:19:27;;;;;;;;;;;;;;;16.95;90.33;97711.64;135638;1278;22521;-80
2023/11/06 11:22:31;;;;;;;;;;;;;;;17.27;89.67;97714.49;135647;1278;22546;-82
2023/11/06 11:25:34;;;;;;;;;;;;;;;17.33;88.37;97725.21;135666;1278;22536;-80
2023/11/06 11:28:37;;;;;;;;;;;;;;;17.13;86.61;97731.14;135671;1278;22533;-82
2023/11/06 11:31:42;;;;;;;;;;;;;;;17.28;86.82;97724.61;135658;1259;22516;-81
2023/11/06 11:34:45;;;;;;;;;;;;;;;17.23;86.05;97738.60;135594;1278;22514;-77
2023/11/06 11:37:47;;;;;;;;;;;;;;;17.71;83.55;97732.77;135628;1278;24226;-74
2023/11/06 11:40:50;;;;;;;;;;;;;;;17.26;83.38;97737.17;135644;1278;22756;-78
2023/11/06 11:43:53;;;;;;;;;;;;;;;17.26;82.80;97738.48;135662;1259;25488;-78
2023/11/06 11:46:55;;;;;;;;;;;;;;;17.23;82.61;97750.42;135646;1278;22575;-81
2023/11/06 11:49:58;;;;;;;;;;;;;;;17.40;82.63;97737.84;135601;1278;22559;-77
2023/11/06 11:53:01;;;;;;;;;;;;;;;17.59;82.02;97746.41;135599;1264;22505;-83
2023/11/06 11:56:03;;;;;;;;;;;;;;;17.52;82.29;97750.42;135588;1278;22521;-80
2023/11/06 11:59:06;;;;;;;;;;;;;;;17.53;80.85;97745.35;135624;1278;22516;-77
2023/11/06 12:02:08;;;;;;;;;;;;;;;17.77;81.37;97746.95;135639;1278;22518;-82
2023/11/06 12:05:10;;;;;;;;;;;;;;;17.87;75.66;97745.06;135633;1278;22512;-74
2023/11/06 12:08:13;;;;;;;;;;;;;;;17.88;69.56;97743.88;135612;1268;22654;-80
2023/11/06 12:11:16;;;;;;;;;;;;;;;17.68;65.52;97755.55;135670;1278;22523;-83
2023/11/06 12:14:18;;;;;;;;;;;;;;;17.17;65.28;97772.27;135635;1278;25253;-83
2023/11/06 12:17:21;;;;;;;;;;;;;;;16.77;66.09;97769.27;135583;1278;22543;-79
2023/11/06 12:20:23;;;;;;;;;;;;;;;16.48;65.15;97772.02;135613;1278;22500;-73
2023/11/06 12:23:25;;;;;;;;;;;;;;;16.34;66.19;97772.79;135665;1278;22522;-81
2023/11/06 12:26:28;;;;;;;;;;;;;;;16.45;66.51;97781.36;135645;1278;22514;-73
2023/11/06 12:29:30;;;;;;;;;;;;;;;16.70;65.78;97781.80;135615;1278;25617;-83
2023/11/06 12:32:33;;;;;;;;;;;;;;;17.02;64.94;97797.48;135672;1278;22530;-86
2023/11/06 12:35:35;;;;;;;;;;;;;;;17.35;64.86;97785.48;135669;1278;22549;-84
2023/11/06 12:38:38;;;;;;;;;;;;;;;17.44;65.30;97778.07;135595;1278;22731;-71
2023/11/06 12:41:42;;;;;;;;;;;;;;;17.46;64.42;97772.17;135630;1278;22518;-73
2023/11/06 12:44:44;;;;;;;;;;;;;;;17.55;64.09;97771.75;135671;1278;22511;-70
2023/11/06 12:47:48;;;;;;;;;;;;;;;18.02;62.08;97782.16;135585;1278;22535;-73
2023/11/06 12:50:51;;;;;;;;;;;;;;;18.32;55.80;97792.38;135572;1278;22523;-81
2023/11/06 12:53:56;;;;;;;;;;;;;;;18.32;55.27;97787.73;135625;1278;22570;-83
2023/11/06 12:57:06;;;;;;;;;;;;;;;17.95;55.97;97803.60;135562;1275;22544;-81
2023/11/06 13:00:14;;;;;;;;;;;;;;;17.94;55.98;97807.08;135632;1278;22511;-82
2023/11/06 13:03:16;;;;;;;;;;;;;;;17.93;55.76;97818.48;135628;1263;22629;-81
2023/11/06 13:06:19;;;;;;;;;;;;;;;17.46;57.42;97810.17;135632;1278;22547;-81
2023/11/06 13:09:21;;;;;;;;;;;;;;;17.36;57.31;97827.96;135643;1278;22988;-81
2023/11/06 13:12:25;;;;;;;;;;;;;;;17.12;58.35;97820.95;135629;1278;22649;-84
2023/11/06 13:15:27;;;;;;;;;;;;;;;17.19;58.54;97822.85;135625;1278;22533;-82
2023/11/06 13:18:30;;;;;;;;;;;;;;;17.14;59.04;97835.22;135597;1278;22500;-84
2023/11/06 13:21:34;;;;;;;;;;;;;;;17.20;59.34;97846.77;135686;1278;22644;-81
2023/11/06 13:24:36;;;;;;;;;;;;;;;17.17;60.03;97849.21;135613;1278;24208;-84
2023/11/06 13:27:38;;;;;;;;;;;;;;;16.94;60.49;97852.95;135632;1278;25014;-79
2023/11/06 13:30:42;;;;;;;;;;;;;;;16.90;60.61;97850.23;135688;1278;23327;-85
2023/11/06 13:33:45;;;;;;;;;;;;;;;16.66;61.68;97865.72;135661;1278;22525;-86
2023/11/06 13:36:49;;;;;;;;;;;;;;;16.74;61.93;97868.29;135595;1278;22526;-82
2023/11/06 13:39:51;;;;;;;;;;;;;;;16.62;61.08;97878.43;135598;1278;22521;-79
2023/11/06 13:42:54;;;;;;;;;;;;;;;16.59;61.39;97880.36;135627;1278;22501;-81
2023/11/06 13:45:58;;;;;;;;;;;;;;;16.63;61.59;97882.05;135671;1278;25378;-78
2023/11/06 13:49:00;;;;;;;;;;;;;;;16.88;60.85;97884.80;135662;1278;22494;-77
2023/11/06 13:52:19;;;;;;;;;;;;;;;16.69;62.26;97889.92;135622;1278;26483;-81
2023/11/06 13:55:31;;;;;;;;;;;;;;;16.42;63.66;97904.29;135613;1278;22518;-84
2023/11/06 13:58:34;;;;;;;;;;;;;;;16.13;66.62;97908.59;135642;1278;22525;-81
2023/11/06 14:01:45;;;;;;;;;;;;;;;16.05;67.21;97910.56;135630;1278;22514;-73
2023/11/06 14:04:55;;;;;;;;;;;;;;;16.07;67.23;97915.09;135634;1278;22523;-75
2023/11/06 14:07:59;;;;;;;;;;;;;;;15.73;69.28;97919.65;135674;1278;24216;-77
2023/11/06 14:11:01;;;;;;;;;;;;;;;15.95;67.71;97910.86;135648;1278;22663;-81
2023/11/06 14:14:06;;;;;;;;;;;;;;;15.86;68.22;97907.65;135650;1278;24201;-82
2023/11/06 14:17:10;;;;;;;;;;;;;;;15.50;69.27;97917.54;135619;1278;22508;-80
2023/11/06 14:20:15;;;;;;;;;;;;;;;15.82;68.77;97916.89;135635;1278;24028;-84
2023/11/06 14:23:18;;;;;;;;;;;;;;;16.10;67.88;97923.83;135663;1278;24269;-81
2023/11/06 14:26:21;;;;;;;;;;;;;;;15.83;68.44;97927.96;135620;1259;22518;-73
2023/11/06 14:29:24;;;;;;;;;;;;;;;15.66;69.47;97931.17;135634;1278;22522;-73
2023/11/06 14:32:27;;;;;;;;;;;;;;;15.84;68.75;97936.95;135590;1278;26614;-76
2023/11/06 14:35:29;;;;;;;;;;;;;;;15.69;69.54;97934.62;135645;1278;22539;-69
2023/11/06 14:38:32;;;;;;;;;;;;;;;15.74;69.94;97937.85;135693;1278;22526;-68
2023/11/06 14:41:34;;;;;;;;;;;;;;;15.81;69.73;97941.27;135635;1278;22536;-77
2023/11/06 14:44:36;;;;;;;;;;;;;;;15.62;71.23;97940.38;135626;1278;22521;-73
2023/11/06 14:47:40;;;;;;;;;;;;;;;15.75;70.71;97938.13;135604;1275;22522;-80
2023/11/06 14:50:42;;;;;;;;;;;;;;;15.86;70.17;97940.91;135635;1278;22527;-79
2023/11/06 14:53:44;;;;;;;;;;;;;;;15.55;71.91;97942.47;135607;1278;22661;-81
2023/11/06 14:56:47;;;;;;;;;;;;;;;15.39;72.60;97936.83;135599;1278;22556;-74
2023/11/06 14:59:49;;;;;;;;;;;;;;;15.31;73.22;97934.94;135639;1278;22549;-67
2023/11/06 15:02:53;;;;;;;;;;;;;;;15.17;74.86;97941.88;135621;1269;22534;-68
2023/11/06 15:05:59;;;;;;;;;;;;;;;15.01;75.69;97944.80;135662;1269;22516;-79
2023/11/06 15:09:01;;;;;;;;;;;;;;;14.85;76.91;97942.13;135686;1278;22534;-72
2023/11/06 15:12:05;;;;;;;;;;;;;;;14.91;76.64;97946.50;135657;1278;22530;-81
2023/11/06 15:15:12;;;;;;;;;;;;;;;14.85;76.81;97947.95;135633;1278;22514;-83
2023/11/06 15:18:15;;;;;;;;;;;;;;;14.74;77.64;97950.40;135570;1259;24311;-71
2023/11/06 15:21:18;;;;;;;;;;;;;;;14.85;76.81;97962.75;135649;1278;22540;-66
2023/11/06 15:24:20;;;;;;;;;;;;;;;14.86;76.45;97968.81;135652;1278;22537;-70
2023/11/06 15:27:23;;;;;;;;;;;;;;;14.68;77.66;97976.30;135644;1278;22536;-67
2023/11/06 15:30:25;;;;;;;;;;;;;;;14.57;77.93;97977.10;135590;1278;22623;-66
2023/11/06 15:33:27;;;;;;;;;;;;;;;14.47;78.76;97982.73;135573;1268;22537;-75